createdAt,value
2019-03-24T00:01:10.861Z,102203.81
2019-03-24T00:03:39.188Z,102201.94
2019-03-24T00:06:07.492Z,102192.14
2019-03-24T00:08:35.773Z,102200.03
2019-03-24T00:11:04.325Z,102200.22
2019-03-24T00:13:32.662Z,102206.10
2019-03-24T00:16:01.196Z,102202.11
2019-03-24T00:18:29.502Z,102202.59
2019-03-24T00:20:57.786Z,102201.36
2019-03-24T00:23:26.171Z,102203.08
2019-03-24T00:25:54.457Z,102203.00
2019-03-24T00:28:22.769Z,102193.11
2019-03-24T00:30:51.068Z,102188.95
2019-03-24T00:33:19.373Z,102193.90
2019-03-24T00:35:47.731Z,102183.16
2019-03-24T00:38:16.043Z,102183.93
2019-03-24T00:40:44.665Z,102175.98
2019-03-24T00:43:12.966Z,102175.81
2019-03-24T00:45:41.626Z,102181.95
2019-03-24T00:48:09.939Z,102179.48
2019-03-24T00:50:38.263Z,102182.58
2019-03-24T00:53:06.558Z,102180.55
2019-03-24T00:55:34.885Z,102185.80
2019-03-24T00:58:03.195Z,102180.07
2019-03-24T01:00:46.374Z,102172.67
2019-03-24T01:03:15.157Z,102175.18
2019-03-24T01:05:43.790Z,102175.77
2019-03-24T01:08:12.431Z,102173.15
2019-03-24T01:10:40.747Z,102178.68
2019-03-24T01:13:09.073Z,102173.10
2019-03-24T01:15:47.305Z,102179.66
2019-03-24T01:18:08.060Z,102172.29
2019-03-24T01:20:36.659Z,102168.83
2019-03-24T01:23:05.013Z,102171.39
2019-03-24T01:25:33.589Z,102163.13
2019-03-24T01:28:01.976Z,102172.06
2019-03-24T01:30:30.265Z,102173.17
2019-03-24T01:32:58.588Z,102178.36
2019-03-24T01:35:26.874Z,102168.06
2019-03-24T01:37:55.175Z,102169.73
2019-03-24T01:40:23.783Z,102162.50
2019-03-24T01:42:52.368Z,102168.70
2019-03-24T01:45:20.955Z,102170.57
2019-03-24T01:47:49.281Z,102166.46
2019-03-24T01:50:17.570Z,102165.81
2019-03-24T01:52:45.870Z,102159.56
2019-03-24T01:55:15.072Z,102159.35
2019-03-24T01:57:43.366Z,102164.52
2019-03-24T02:00:12.302Z,102163.40
2019-03-24T02:02:40.603Z,102157.77
2019-03-24T02:05:08.924Z,102157.52
2019-03-24T02:07:37.323Z,102146.65
2019-03-24T02:10:10.274Z,102142.46
2019-03-24T02:12:38.841Z,102148.55
2019-03-24T02:15:08.141Z,102127.86
2019-03-24T02:17:36.443Z,102127.86
2019-03-24T02:20:05.900Z,102140.88
2019-03-24T02:22:34.275Z,102140.95
2019-03-24T02:25:02.634Z,102141.80
2019-03-24T02:27:30.929Z,102141.91
2019-03-24T02:29:59.270Z,102138.23
2019-03-24T02:32:27.874Z,102134.59
2019-03-24T02:34:56.223Z,102136.48
2019-03-24T02:37:24.524Z,102141.63
2019-03-24T02:39:52.839Z,102143.11
2019-03-24T02:42:21.436Z,102134.49
2019-03-24T02:44:49.737Z,102133.18
2019-03-24T02:47:18.040Z,102126.92
2019-03-24T02:49:46.338Z,102130.96
2019-03-24T02:52:14.959Z,102131.62
2019-03-24T02:54:43.244Z,102129.07
2019-03-24T02:57:11.564Z,102123.83
2019-03-24T02:59:39.932Z,102123.83
2019-03-24T03:02:08.224Z,102123.18
2019-03-24T03:04:36.962Z,102123.28
2019-03-24T03:07:05.642Z,102124.30
2019-03-24T03:09:34.219Z,102138.06
2019-03-24T03:12:02.554Z,102134.97
2019-03-24T03:14:31.182Z,102122.81
2019-03-24T03:16:59.490Z,102121.21
2019-03-24T03:19:27.800Z,102123.36
2019-03-24T03:21:56.100Z,102119.64
2019-03-24T03:24:24.802Z,102117.48
2019-03-24T03:26:53.112Z,102114.86
2019-03-24T03:29:21.426Z,102116.61
2019-03-24T03:31:49.740Z,102123.45
2019-03-24T03:34:18.045Z,102121.78
2019-03-24T03:36:46.321Z,102112.14
2019-03-24T03:39:14.721Z,102113.06
2019-03-24T03:41:43.043Z,102113.45
2019-03-24T03:44:11.380Z,102105.95
2019-03-24T03:46:51.859Z,102113.34
2019-03-24T03:49:09.743Z,102115.30
2019-03-24T03:51:38.058Z,102117.85
2019-03-24T03:54:06.356Z,102112.88
2019-03-24T03:56:34.667Z,102106.54
2019-03-24T03:59:02.968Z,102105.23
2019-03-24T04:01:31.352Z,102099.05
2019-03-24T04:03:59.630Z,102098.28
2019-03-24T04:06:28.261Z,102095.20
2019-03-24T04:08:56.666Z,102092.58
2019-03-24T04:11:24.980Z,102090.73
2019-03-24T04:13:53.277Z,102083.23
2019-03-24T04:16:21.623Z,102086.88
2019-03-24T04:18:50.266Z,102086.98
2019-03-24T04:21:18.575Z,102086.40
2019-03-24T04:23:46.883Z,102085.09
2019-03-24T04:26:15.206Z,102085.09
2019-03-24T04:28:43.535Z,102074.14
2019-03-24T04:31:11.981Z,102076.58
2019-03-24T04:33:40.289Z,102073.95
2019-03-24T04:36:08.907Z,102071.05
2019-03-24T04:38:37.222Z,102070.31
2019-03-24T04:41:05.763Z,102074.97
2019-03-24T04:43:34.340Z,102075.33
2019-03-24T04:46:02.704Z,102070.66
2019-03-24T04:48:31.067Z,102067.65
2019-03-24T04:50:59.347Z,102071.58
2019-03-24T04:53:27.631Z,102077.28
2019-03-24T04:55:56.088Z,102079.34
2019-03-24T04:58:24.609Z,102074.47
2019-03-24T05:00:52.940Z,102070.61
2019-03-24T05:03:21.233Z,102066.79
2019-03-24T05:05:49.797Z,102070.23
2019-03-24T05:08:18.285Z,102069.27
2019-03-24T05:10:46.592Z,102069.63
2019-03-24T05:13:14.898Z,102063.66
2019-03-24T05:15:43.473Z,102065.61
2019-03-24T05:18:11.784Z,102059.91
2019-03-24T05:20:40.066Z,102061.56
2019-03-24T05:23:08.371Z,102056.84
2019-03-24T05:25:36.656Z,102064.13
2019-03-24T05:28:04.966Z,102064.30
2019-03-24T05:30:33.272Z,102057.83
2019-03-24T05:33:01.650Z,102057.79
2019-03-24T05:35:29.937Z,102061.88
2019-03-24T05:37:58.248Z,102065.93
2019-03-24T05:40:26.556Z,102070.34
2019-03-24T05:42:54.896Z,102074.09
2019-03-24T05:45:23.142Z,102065.85
2019-03-24T05:47:51.450Z,102071.85
2019-03-24T05:50:19.788Z,102067.65
2019-03-24T05:52:48.108Z,102059.63
2019-03-24T05:55:16.718Z,102066.48
2019-03-24T05:57:45.018Z,102066.02
2019-03-24T06:00:13.593Z,102062.75
2019-03-24T06:02:42.361Z,102065.48
2019-03-24T06:05:11.043Z,102060.91
2019-03-24T06:07:39.350Z,102056.98
2019-03-24T06:10:08.539Z,102056.99
2019-03-24T06:12:36.841Z,102060.74
2019-03-24T06:15:08.002Z,102055.61
2019-03-24T06:17:36.335Z,102056.23
2019-03-24T06:20:06.265Z,102051.88
2019-03-24T06:22:34.566Z,102050.45
2019-03-24T06:25:02.874Z,102052.53
2019-03-24T06:27:31.178Z,102051.41
2019-03-24T06:29:59.465Z,102051.59
2019-03-24T06:32:27.794Z,102048.89
2019-03-24T06:34:56.068Z,102045.55
2019-03-24T06:37:24.401Z,102042.72
2019-03-24T06:39:52.681Z,102039.38
2019-03-24T06:42:21.007Z,102039.08
2019-03-24T06:44:49.305Z,102032.61
2019-03-24T06:47:17.596Z,102025.34
2019-03-24T06:49:45.909Z,102030.83
2019-03-24T06:52:14.646Z,102026.43
2019-03-24T06:54:42.981Z,102031.23
2019-03-24T06:57:11.277Z,102029.27
2019-03-24T06:59:39.601Z,102028.98
2019-03-24T07:02:08.260Z,102029.99
2019-03-24T07:04:36.600Z,102027.48
2019-03-24T07:07:04.885Z,102028.14
2019-03-24T07:09:33.269Z,102030.94
2019-03-24T07:12:01.577Z,102028.50
2019-03-24T07:14:29.884Z,102029.70
2019-03-24T07:16:58.171Z,102018.58
2019-03-24T07:19:26.480Z,102017.19
2019-03-24T07:21:54.779Z,102021.59
2019-03-24T07:24:23.218Z,102013.73
2019-03-24T07:26:51.498Z,102021.58
2019-03-24T07:29:19.794Z,102016.52
2019-03-24T07:31:48.419Z,102018.30
2019-03-24T07:34:16.695Z,102012.52
2019-03-24T07:36:45.019Z,102004.46
2019-03-24T07:39:13.640Z,102011.83
2019-03-24T07:41:41.956Z,102013.31
2019-03-24T07:44:10.308Z,102012.20
2019-03-24T07:46:38.633Z,102002.72
2019-03-24T07:49:07.245Z,101995.53
2019-03-24T07:51:35.550Z,101999.44
2019-03-24T07:54:03.852Z,101994.73
2019-03-24T07:56:32.195Z,101998.55
2019-03-24T07:59:00.499Z,102004.27
2019-03-24T08:01:28.856Z,101999.19
2019-03-24T08:03:57.180Z,101996.30
2019-03-24T08:06:25.467Z,101999.47
2019-03-24T08:08:54.099Z,102005.00
2019-03-24T08:11:22.417Z,101994.95
2019-03-24T08:13:53.937Z,101990.52
2019-03-24T08:16:20.909Z,101993.02
2019-03-24T08:18:49.194Z,101995.92
2019-03-24T08:21:17.927Z,102000.33
2019-03-24T08:23:46.597Z,102003.19
2019-03-24T08:26:14.894Z,102006.57
2019-03-24T08:28:43.466Z,102001.52
2019-03-24T08:31:12.032Z,102005.58
2019-03-24T08:33:40.373Z,101997.62
2019-03-24T08:36:08.681Z,102003.25
2019-03-24T08:38:37.014Z,102016.13
2019-03-24T08:41:05.554Z,102006.10
2019-03-24T08:43:33.864Z,102005.04
2019-03-24T08:46:02.163Z,102009.29
2019-03-24T08:48:40.375Z,102006.09
2019-03-24T08:51:00.921Z,102003.88
2019-03-24T08:53:29.208Z,101998.90
2019-03-24T08:55:57.534Z,101995.17
2019-03-24T08:58:26.169Z,101994.12
2019-03-24T09:00:54.743Z,101994.40
2019-03-24T09:03:23.049Z,101995.91
2019-03-24T09:05:51.702Z,101995.45
2019-03-24T09:08:20.266Z,101994.13
2019-03-24T09:10:48.631Z,101995.31
2019-03-24T09:13:16.913Z,101988.96
2019-03-24T09:15:45.522Z,101989.86
2019-03-24T09:18:14.062Z,101991.95
2019-03-24T09:20:42.474Z,101992.13
2019-03-24T09:23:10.840Z,101987.50
2019-03-24T09:25:39.127Z,101988.95
2019-03-24T09:28:09.249Z,101981.83
2019-03-24T09:30:38.378Z,101979.83
2019-03-24T09:33:07.248Z,101986.41
2019-03-24T09:35:35.537Z,101975.83
2019-03-24T09:38:04.011Z,101982.91
2019-03-24T09:40:35.850Z,101972.45
2019-03-24T09:43:05.644Z,101974.70
2019-03-24T09:45:33.989Z,101970.22
2019-03-24T09:48:02.791Z,101970.14
2019-03-24T09:50:31.274Z,101965.84
2019-03-24T09:52:59.629Z,101959.03
2019-03-24T09:55:27.971Z,101958.30
2019-03-24T09:57:56.284Z,101949.70
2019-03-24T10:00:24.879Z,101955.00
2019-03-24T10:02:53.163Z,101953.00
2019-03-24T10:05:21.488Z,101957.94
2019-03-24T10:07:49.785Z,101955.44
2019-03-24T10:10:18.184Z,101957.48
2019-03-24T10:12:46.727Z,101962.03
2019-03-24T10:15:16.108Z,101961.22
2019-03-24T10:17:44.782Z,101951.78
2019-03-24T10:20:13.283Z,101960.03
2019-03-24T10:22:41.588Z,101972.00
2019-03-24T10:25:09.878Z,101965.23
2019-03-24T10:27:38.165Z,101962.43
2019-03-24T10:30:08.183Z,101968.91
2019-03-24T10:32:36.488Z,101968.70
2019-03-24T10:35:06.454Z,101968.59
2019-03-24T10:37:34.771Z,101969.66
2019-03-24T10:40:03.349Z,101961.17
2019-03-24T10:42:31.725Z,101953.14
2019-03-24T10:45:00.367Z,101947.77
2019-03-24T10:47:28.678Z,101940.12
2019-03-24T10:49:56.979Z,101925.38
2019-03-24T10:52:25.303Z,101936.47
2019-03-24T10:54:53.625Z,101921.19
2019-03-24T10:57:21.990Z,101918.19
2019-03-24T10:59:50.287Z,101913.89
2019-03-24T11:02:18.631Z,101914.53
2019-03-24T11:04:46.935Z,101912.53
2019-03-24T11:07:15.566Z,101909.25
2019-03-24T11:09:45.081Z,101910.61
2019-03-24T11:12:13.855Z,101913.95
2019-03-24T11:14:42.166Z,101915.27
2019-03-24T11:17:10.466Z,101904.91
2019-03-24T11:19:39.511Z,101907.70
2019-03-24T11:22:07.869Z,101906.22
2019-03-24T11:24:36.182Z,101907.45
2019-03-24T11:27:04.484Z,101909.59
2019-03-24T11:29:32.812Z,101902.72
2019-03-24T11:32:01.113Z,101902.45
2019-03-24T11:34:29.426Z,101899.78
2019-03-24T11:36:57.717Z,101893.92
2019-03-24T11:39:26.349Z,101898.12
2019-03-24T11:41:54.666Z,101889.34
2019-03-24T11:44:22.954Z,101886.00
2019-03-24T11:46:51.274Z,101887.31
2019-03-24T11:49:20.146Z,101887.70
2019-03-24T11:51:48.550Z,101892.86
2019-03-24T11:54:16.867Z,101892.09
2019-03-24T11:56:45.183Z,101883.91
2019-03-24T11:59:13.765Z,101884.91
2019-03-24T12:01:42.092Z,101881.58
2019-03-24T12:04:10.386Z,101877.41
2019-03-24T12:06:38.715Z,101866.81
2019-03-24T12:09:07.311Z,101861.79
2019-03-24T12:11:35.633Z,101869.94
2019-03-24T12:14:04.993Z,101864.47
2019-03-24T12:16:33.573Z,101859.61
2019-03-24T12:19:01.862Z,101863.39
2019-03-24T12:21:30.198Z,101857.13
2019-03-24T12:23:58.624Z,101857.53
2019-03-24T12:26:27.272Z,101848.21
2019-03-24T12:28:55.595Z,101849.39
2019-03-24T12:31:23.908Z,101855.16
2019-03-24T12:33:52.510Z,101849.00
2019-03-24T12:36:21.092Z,101850.91
2019-03-24T12:38:49.675Z,101847.17
2019-03-24T12:41:17.966Z,101839.36
2019-03-24T12:43:46.290Z,101841.20
2019-03-24T12:46:14.625Z,101841.56
2019-03-24T12:48:42.916Z,101841.58
2019-03-24T12:51:11.211Z,101853.98
2019-03-24T12:53:39.837Z,101855.59
2019-03-24T12:56:08.149Z,101851.60
2019-03-24T12:58:36.455Z,101850.52
2019-03-24T13:01:05.002Z,101846.17
2019-03-24T13:03:35.839Z,101835.05
2019-03-24T13:06:03.801Z,101837.91
2019-03-24T13:08:32.092Z,101834.13
2019-03-24T13:11:00.398Z,101838.92
2019-03-24T13:13:29.022Z,101831.19
2019-03-24T13:15:57.606Z,101835.00
2019-03-24T13:18:25.896Z,101831.42
2019-03-24T13:20:54.195Z,101828.67
2019-03-24T13:23:22.481Z,101822.08
2019-03-24T13:25:50.888Z,101827.84
2019-03-24T13:28:19.458Z,101824.97
2019-03-24T13:30:47.806Z,101822.44
2019-03-24T13:33:16.462Z,101830.09
2019-03-24T13:35:44.832Z,101821.30
2019-03-24T13:38:13.121Z,101820.72
2019-03-24T13:40:41.418Z,101815.06
2019-03-24T13:43:09.759Z,101819.18
2019-03-24T13:45:38.044Z,101817.03
2019-03-24T13:48:06.751Z,101815.14
2019-03-24T13:50:35.049Z,101815.77
2019-03-24T13:53:03.688Z,101816.75
2019-03-24T13:55:32.220Z,101809.36
2019-03-24T13:58:00.596Z,101806.27
2019-03-24T14:00:28.893Z,101800.52
2019-03-24T14:02:57.451Z,101797.78
2019-03-24T14:05:25.737Z,101802.03
2019-03-24T14:07:54.049Z,101801.78
2019-03-24T14:10:22.364Z,101791.38
2019-03-24T14:12:50.778Z,101794.00
2019-03-24T14:15:19.092Z,101798.55
2019-03-24T14:17:47.677Z,101787.77
2019-03-24T14:20:15.990Z,101784.05
2019-03-24T14:22:44.279Z,101782.92
2019-03-24T14:25:12.593Z,101768.41
2019-03-24T14:27:40.878Z,101765.75
2019-03-24T14:30:09.623Z,101771.84
2019-03-24T14:32:37.850Z,101770.05
2019-03-24T14:35:07.729Z,101769.33
2019-03-24T14:37:36.023Z,101770.88
2019-03-24T14:40:05.986Z,101761.91
2019-03-24T14:42:34.271Z,101767.76
2019-03-24T14:45:02.658Z,101755.15
2019-03-24T14:47:30.968Z,101750.25
2019-03-24T14:49:59.297Z,101746.04
2019-03-24T14:52:27.681Z,101754.16
2019-03-24T14:54:55.995Z,101750.19
2019-03-24T14:57:24.364Z,101748.79
2019-03-24T14:59:53.017Z,101750.62
2019-03-24T15:02:21.322Z,101748.77
2019-03-24T15:04:49.664Z,101748.08
2019-03-24T15:07:18.001Z,101741.48
2019-03-24T15:09:46.303Z,101738.11
2019-03-24T15:12:14.616Z,101737.66
2019-03-24T15:14:42.993Z,101720.88
2019-03-24T15:17:11.329Z,101734.44
2019-03-24T15:19:39.635Z,101731.41
2019-03-24T15:22:07.957Z,101735.45
2019-03-24T15:24:36.250Z,101738.31
2019-03-24T15:27:04.618Z,101733.53
2019-03-24T15:29:32.952Z,101731.64
2019-03-24T15:32:01.192Z,101729.83
2019-03-24T15:34:29.518Z,101720.28
2019-03-24T15:36:58.171Z,101717.06
2019-03-24T15:39:26.504Z,101725.06
2019-03-24T15:43:10.592Z,101715.67
2019-03-24T15:45:39.030Z,101712.46
2019-03-24T15:48:07.352Z,101700.45
2019-03-24T15:50:35.677Z,101702.38
2019-03-24T15:53:04.305Z,101702.98
2019-03-24T15:55:32.689Z,101700.00
2019-03-24T15:58:00.981Z,101702.66
2019-03-24T16:00:40.618Z,101700.02
2019-03-24T16:03:09.317Z,101705.73
2019-03-24T16:05:37.626Z,101694.09
2019-03-24T16:08:05.930Z,101689.05
2019-03-24T16:10:35.332Z,101686.76
2019-03-24T16:13:03.887Z,101692.77
2019-03-24T16:15:32.228Z,101688.48
2019-03-24T16:18:00.587Z,101678.76
2019-03-24T16:20:29.167Z,101677.93
2019-03-24T16:22:57.751Z,101682.86
2019-03-24T16:25:26.066Z,101681.16
2019-03-24T16:27:54.418Z,101681.42
2019-03-24T16:30:22.840Z,101682.31
2019-03-24T16:32:51.150Z,101682.80
2019-03-24T16:35:19.448Z,101678.04
2019-03-24T16:37:48.033Z,101679.38
2019-03-24T16:40:16.626Z,101672.95
2019-03-24T16:42:44.980Z,101675.84
2019-03-24T16:45:13.442Z,101672.62
2019-03-24T16:47:42.071Z,101670.39
2019-03-24T16:50:10.573Z,101674.25
2019-03-24T16:52:38.889Z,101669.48
2019-03-24T16:55:08.023Z,101672.96
2019-03-24T16:57:36.367Z,101669.15
2019-03-24T17:00:06.475Z,101670.81
2019-03-24T17:02:34.798Z,101675.98
2019-03-24T17:05:03.975Z,101664.14
2019-03-24T17:07:32.517Z,101664.53
2019-03-24T17:10:00.929Z,101660.70
2019-03-24T17:12:29.700Z,101658.06
2019-03-24T17:14:58.028Z,101664.92
2019-03-24T17:17:26.417Z,101662.16
2019-03-24T17:19:54.972Z,101660.51
2019-03-24T17:22:23.369Z,101665.16
2019-03-24T17:24:52.036Z,101660.38
2019-03-24T17:27:20.621Z,101661.73
2019-03-24T17:29:48.932Z,101664.96
2019-03-24T17:32:17.315Z,101660.56
2019-03-24T17:34:47.466Z,101659.59
2019-03-24T17:37:16.284Z,101662.12
2019-03-24T17:39:44.601Z,101660.11
2019-03-24T17:42:12.888Z,101660.46
2019-03-24T17:44:41.523Z,101656.06
2019-03-24T17:47:09.824Z,101661.70
2019-03-24T17:49:38.476Z,101664.32
2019-03-24T17:52:07.029Z,101653.09
2019-03-24T17:54:35.345Z,101658.70
2019-03-24T17:57:03.655Z,101653.47
2019-03-24T17:59:32.030Z,101662.52
2019-03-24T18:02:00.336Z,101663.86
2019-03-24T18:04:28.967Z,101661.57
2019-03-24T18:06:57.653Z,101660.52
2019-03-24T18:09:25.934Z,101664.70
2019-03-24T18:11:54.233Z,101655.83
2019-03-24T18:14:22.528Z,101654.98
2019-03-24T18:16:50.905Z,101647.95
2019-03-24T18:19:19.540Z,101660.97
2019-03-24T18:21:47.888Z,101663.92
2019-03-24T18:24:16.238Z,101656.89
2019-03-24T18:26:44.516Z,101656.77
2019-03-24T18:29:12.829Z,101661.64
2019-03-24T18:31:41.154Z,101662.84
2019-03-24T18:34:09.451Z,101670.11
2019-03-24T18:36:38.068Z,101672.36
2019-03-24T18:39:08.021Z,101670.44
2019-03-24T18:41:36.621Z,101673.78
2019-03-24T18:44:05.014Z,101670.67
2019-03-24T18:46:33.301Z,101672.95
2019-03-24T18:49:01.624Z,101671.38
2019-03-24T18:51:29.913Z,101672.20
2019-03-24T18:53:58.210Z,101671.38
2019-03-24T18:56:26.812Z,101665.06
2019-03-24T18:58:55.119Z,101661.73
2019-03-24T19:01:23.455Z,101653.97
2019-03-24T19:03:51.742Z,101655.55
2019-03-24T19:06:20.063Z,101653.75
2019-03-24T19:08:48.354Z,101649.94
2019-03-24T19:11:16.734Z,101646.92
2019-03-24T19:13:45.033Z,101649.20
2019-03-24T19:16:13.333Z,101651.48
2019-03-24T19:18:41.641Z,101651.58
2019-03-24T19:21:09.943Z,101648.12
2019-03-24T19:23:38.373Z,101651.80
2019-03-24T19:26:06.676Z,101657.28
2019-03-24T19:28:35.000Z,101650.11
2019-03-24T19:31:03.376Z,101649.41
2019-03-24T19:33:32.029Z,101650.34
2019-03-24T19:36:00.887Z,101649.51
2019-03-24T19:38:33.755Z,101646.75
2019-03-24T19:41:07.755Z,101649.12
2019-03-24T19:43:36.229Z,101646.86
2019-03-24T19:46:04.598Z,101648.04
2019-03-24T19:48:32.902Z,101652.91
2019-03-24T19:51:03.636Z,101650.72
2019-03-24T19:53:31.960Z,101646.72
2019-03-24T19:56:00.353Z,101644.80
2019-03-24T19:58:28.665Z,101649.65
2019-03-24T20:00:56.969Z,101644.72
2019-03-24T20:03:25.316Z,101642.31
2019-03-24T20:05:53.607Z,101643.01
2019-03-24T20:08:22.141Z,101643.70
2019-03-24T20:10:50.445Z,101643.09
2019-03-24T20:13:18.765Z,101646.53
2019-03-24T20:15:47.084Z,101643.30
2019-03-24T20:18:15.409Z,101649.95
2019-03-24T20:20:43.773Z,101641.34
2019-03-24T20:23:12.075Z,101639.72
2019-03-24T20:25:40.713Z,101647.51
2019-03-24T20:28:09.007Z,101647.47
2019-03-24T20:30:37.316Z,101653.02
2019-03-24T20:33:05.751Z,101651.05
2019-03-24T20:35:34.404Z,101642.24
2019-03-24T20:38:02.851Z,101643.23
2019-03-24T20:40:31.189Z,101647.20
2019-03-24T20:42:59.515Z,101639.20
2019-03-24T20:45:27.846Z,101638.14
2019-03-24T20:47:56.151Z,101642.44
2019-03-24T20:50:24.452Z,101644.70
2019-03-24T20:53:03.399Z,101638.11
2019-03-24T20:55:22.781Z,101634.88
2019-03-24T20:57:51.592Z,101636.48
2019-03-24T21:00:23.264Z,101622.23
2019-03-24T21:02:51.580Z,101627.41
2019-03-24T21:05:19.868Z,101621.89
2019-03-24T21:07:48.282Z,101612.80
2019-03-24T21:10:16.570Z,101619.69
2019-03-24T21:12:44.913Z,101613.92
2019-03-24T21:15:13.306Z,101616.02
2019-03-24T21:17:41.593Z,101614.00
2019-03-24T21:20:10.588Z,101610.50
2019-03-24T21:22:38.890Z,101612.86
2019-03-24T21:25:08.494Z,101605.12
2019-03-24T21:27:37.213Z,101602.14
2019-03-24T21:30:07.162Z,101598.78
2019-03-24T21:32:35.451Z,101603.77
2019-03-24T21:35:05.295Z,101597.77
2019-03-24T21:37:33.598Z,101595.92
2019-03-24T21:40:01.916Z,101589.70
2019-03-24T21:42:30.211Z,101578.34
2019-03-24T21:44:58.513Z,101578.94
2019-03-24T21:47:27.104Z,101583.23
2019-03-24T21:49:55.393Z,101586.11
2019-03-24T21:52:23.969Z,101581.35
2019-03-24T21:54:52.286Z,101577.63
2019-03-24T21:57:20.929Z,101577.02
2019-03-24T21:59:49.217Z,101579.37
2019-03-24T22:02:17.844Z,101576.61
2019-03-24T22:04:46.157Z,101582.29
2019-03-24T22:07:14.703Z,101577.30
2019-03-24T22:09:43.011Z,101570.95
2019-03-24T22:12:11.340Z,101569.02
2019-03-24T22:14:40.088Z,101566.49
2019-03-24T22:17:08.548Z,101567.45
2019-03-24T22:19:38.684Z,101561.85
2019-03-24T22:22:06.867Z,101557.53
2019-03-24T22:24:35.197Z,101552.77
2019-03-24T22:27:03.506Z,101552.89
2019-03-24T22:29:31.796Z,101552.15
2019-03-24T22:32:00.105Z,101544.63
2019-03-24T22:34:28.415Z,101542.93
2019-03-24T22:36:56.744Z,101542.30
2019-03-24T22:39:25.424Z,101532.99
2019-03-24T22:41:53.701Z,101528.23
2019-03-24T22:44:21.999Z,101524.78
2019-03-24T22:46:50.653Z,101530.85
2019-03-24T22:49:18.941Z,101523.69
2019-03-24T22:51:47.260Z,101524.37
2019-03-24T22:54:15.884Z,101518.30
2019-03-24T22:56:44.377Z,101513.27
2019-03-24T22:59:12.616Z,101511.13
2019-03-24T23:01:41.256Z,101501.97
2019-03-24T23:04:09.547Z,101502.53
2019-03-24T23:06:37.864Z,101498.81
2019-03-24T23:09:09.056Z,101494.41
2019-03-24T23:11:37.387Z,101492.84
2019-03-24T23:14:05.683Z,101487.60
2019-03-24T23:16:34.018Z,101480.22
2019-03-24T23:19:02.305Z,101469.04
2019-03-24T23:21:30.872Z,101472.58
2019-03-24T23:23:59.155Z,101466.16
2019-03-24T23:26:27.519Z,101460.09
2019-03-24T23:28:55.847Z,101457.56
2019-03-24T23:31:24.126Z,101449.92
2019-03-24T23:33:52.423Z,101442.75
2019-03-24T23:36:20.743Z,101441.21
2019-03-24T23:38:49.098Z,101431.78
2019-03-24T23:41:17.381Z,101424.00
2019-03-24T23:43:45.706Z,101427.66
2019-03-24T23:46:14.068Z,101420.99
2019-03-24T23:48:42.369Z,101420.55
2019-03-24T23:51:10.967Z,101407.20
2019-03-24T23:53:39.538Z,101405.27
2019-03-24T23:56:07.897Z,101399.65
2019-03-24T23:58:41.077Z,101398.82
